Time;durP1;ratioP1;P1;durP2;ratioP2;P2;SDS_P1;SDS_P2;PMS_P1;PMS_P2;Temp;Humidity;BMP_temperature;BMP_pressure;BME280_temperature;BME280_humidity;BME280_pressure;Samples;Min_cycle;Max_cycle;Signal;HPM_P1;HPM_P2
2021/09/16 00:00:32;;;;;;;16.47;15.20;;;15.00;99.90;;;;;;5051140;28;20810;-69
2021/09/16 00:03:00;;;;;;;15.80;14.80;;;14.90;99.90;;;;;;5041587;28;20471;-70
2021/09/16 00:05:28;;;;;;;16.53;15.17;;;14.80;99.90;;;;;;5046688;28;20460;-69
2021/09/16 00:07:57;;;;;;;15.90;14.80;;;14.70;99.90;;;;;;5042936;28;20494;-69
2021/09/16 00:10:24;;;;;;;15.90;15.00;;;14.60;99.90;;;;;;5044196;28;20956;-69
2021/09/16 00:12:51;;;;;;;17.43;15.73;;;14.50;99.90;;;;;;5042509;28;20490;-69
2021/09/16 00:15:19;;;;;;;15.80;14.80;;;14.50;99.90;;;;;;5044157;28;20463;-69
2021/09/16 00:17:46;;;;;;;16.63;15.10;;;14.40;99.90;;;;;;5056643;28;20479;-70
2021/09/16 00:20:14;;;;;;;16.10;14.87;;;14.30;99.90;;;;;;5036105;28;20455;-71
2021/09/16 00:22:41;;;;;;;16.07;14.87;;;14.20;99.90;;;;;;5045892;28;20460;-72
2021/09/16 00:25:10;;;;;;;16.47;15.47;;;14.10;99.90;;;;;;5040177;28;20457;-70
2021/09/16 00:27:40;;;;;;;17.23;15.90;;;14.00;99.90;;;;;;5040613;28;20456;-71
2021/09/16 00:30:09;;;;;;;16.60;15.47;;;13.90;99.90;;;;;;5040143;28;20456;-69
2021/09/16 00:32:37;;;;;;;17.30;15.97;;;13.80;99.90;;;;;;5037242;28;20463;-69
2021/09/16 00:35:04;;;;;;;17.43;16.00;;;13.80;99.90;;;;;;5047196;28;20472;-71
2021/09/16 00:37:31;;;;;;;17.47;16.47;;;13.70;99.90;;;;;;5042266;28;20464;-69
2021/09/16 00:40:00;;;;;;;17.50;16.37;;;13.60;99.90;;;;;;5043702;28;20456;-73
2021/09/16 00:42:30;;;;;;;18.13;16.83;;;13.50;99.90;;;;;;5039830;28;20463;-70
2021/09/16 00:44:57;;;;;;;18.73;17.40;;;13.30;99.90;;;;;;5039718;28;20461;-69
2021/09/16 00:47:24;;;;;;;18.70;17.40;;;13.20;99.90;;;;;;5043061;28;20464;-70
2021/09/16 00:49:53;;;;;;;19.13;17.83;;;13.20;99.90;;;;;;5039189;28;20562;-72
2021/09/16 00:52:22;;;;;;;19.17;17.47;;;13.20;99.90;;;;;;5042605;28;20503;-69
2021/09/16 00:54:50;;;;;;;18.10;16.60;;;13.10;99.90;;;;;;5035129;28;20993;-72
2021/09/16 00:57:19;;;;;;;18.67;17.20;;;13.10;99.90;;;;;;5051302;28;20471;-70
2021/09/16 00:59:48;;;;;;;18.93;17.50;;;13.00;99.90;;;;;;5036156;28;20454;-69
2021/09/16 01:02:16;;;;;;;17.73;16.70;;;13.00;99.90;;;;;;5045329;28;20463;-69
2021/09/16 01:04:44;;;;;;;18.43;17.10;;;13.00;99.90;;;;;;5040234;28;20835;-70
2021/09/16 01:07:14;;;;;;;18.20;16.70;;;13.00;99.90;;;;;;5038611;28;20454;-70
2021/09/16 01:09:42;;;;;;;18.33;16.93;;;12.90;99.90;;;;;;5046506;28;20857;-71
2021/09/16 01:12:10;;;;;;;19.90;18.27;;;12.80;99.90;;;;;;5039273;28;20449;-72
2021/09/16 01:14:39;;;;;;;18.37;17.30;;;12.80;99.90;;;;;;5041090;28;20479;-72
2021/09/16 01:17:09;;;;;;;19.67;18.27;;;12.80;99.90;;;;;;5041787;28;20467;-69
2021/09/16 01:19:36;;;;;;;19.00;17.73;;;12.70;99.90;;;;;;5043379;28;20486;-69
2021/09/16 01:22:04;;;;;;;20.07;18.60;;;12.60;99.90;;;;;;5043425;28;20456;-69
2021/09/16 01:24:32;;;;;;;19.90;18.40;;;12.50;99.90;;;;;;5052695;28;20482;-70
2021/09/16 01:26:59;;;;;;;20.57;18.90;;;12.30;99.90;;;;;;5046031;28;20448;-69
2021/09/16 01:29:26;;;;;;;21.47;19.67;;;12.20;99.90;;;;;;5037517;28;20471;-68
2021/09/16 01:31:55;;;;;;;21.20;19.37;;;12.10;99.90;;;;;;5036306;28;20523;-69
2021/09/16 01:34:21;;;;;;;21.13;19.07;;;12.20;99.90;;;;;;5040687;28;20507;-69
2021/09/16 01:36:49;;;;;;;21.37;19.57;;;12.10;99.90;;;;;;5040751;28;20460;-71
2021/09/16 01:39:17;;;;;;;21.30;19.30;;;12.00;99.90;;;;;;5058511;28;20484;-70
2021/09/16 01:41:47;;;;;;;21.33;19.63;;;12.00;99.90;;;;;;5053362;28;20457;-69
2021/09/16 01:44:15;;;;;;;21.63;19.83;;;11.90;99.90;;;;;;5039663;28;20460;-69
2021/09/16 01:46:43;;;;;;;20.60;19.07;;;11.90;99.90;;;;;;5043489;28;20987;-70
2021/09/16 01:49:12;;;;;;;21.43;19.40;;;11.90;99.90;;;;;;5033037;28;20453;-69
2021/09/16 01:51:40;;;;;;;20.70;19.30;;;11.90;99.90;;;;;;5048738;28;20455;-72
2021/09/16 01:54:08;;;;;;;20.90;19.40;;;11.80;99.90;;;;;;5041123;28;20483;-73
2021/09/16 01:56:35;;;;;;;21.00;19.47;;;11.80;99.90;;;;;;5043956;28;20454;-72
2021/09/16 01:59:04;;;;;;;21.97;20.27;;;11.70;99.90;;;;;;5039800;28;20958;-71
2021/09/16 02:01:31;;;;;;;21.37;19.57;;;11.70;99.90;;;;;;5037195;28;20456;-72
2021/09/16 02:03:59;;;;;;;22.23;20.43;;;11.70;99.90;;;;;;5050736;28;20463;-71
2021/09/16 02:06:26;;;;;;;22.30;20.63;;;11.70;99.90;;;;;;5048528;28;20467;-68
2021/09/16 02:08:53;;;;;;;24.30;21.80;;;11.70;99.90;;;;;;5049296;28;20478;-72
2021/09/16 02:11:21;;;;;;;22.33;20.73;;;11.70;99.90;;;;;;5046832;28;20449;-71
2021/09/16 02:13:48;;;;;;;22.33;19.90;;;11.70;99.90;;;;;;5059050;28;20495;-69
2021/09/16 02:16:17;;;;;;;22.33;20.77;;;11.80;99.90;;;;;;5052931;28;20451;-72
2021/09/16 02:18:44;;;;;;;23.17;21.20;;;11.80;99.90;;;;;;5047884;28;20460;-69
2021/09/16 02:21:11;;;;;;;23.60;21.77;;;11.90;99.90;;;;;;5044062;28;20475;-70
2021/09/16 02:23:39;;;;;;;23.90;21.73;;;12.00;99.90;;;;;;5042169;28;20468;-69
2021/09/16 02:26:06;;;;;;;23.87;21.97;;;12.10;99.90;;;;;;5045228;28;20509;-72
2021/09/16 02:28:33;;;;;;;22.53;20.60;;;12.20;99.90;;;;;;5047246;28;20454;-73
2021/09/16 02:31:01;;;;;;;23.93;21.90;;;12.30;99.90;;;;;;5048568;28;20459;-70
2021/09/16 02:33:32;;;;;;;24.87;22.70;;;12.30;99.90;;;;;;5049410;28;20477;-69
2021/09/16 02:36:00;;;;;;;24.63;22.37;;;12.40;99.90;;;;;;5043658;28;20787;-70
2021/09/16 02:38:27;;;;;;;23.37;21.10;;;12.50;99.90;;;;;;5043152;28;20467;-69
2021/09/16 02:40:54;;;;;;;25.20;22.50;;;12.60;99.90;;;;;;5044796;28;20863;-73
2021/09/16 02:43:23;;;;;;;25.53;23.30;;;12.70;99.90;;;;;;5043054;28;20455;-70
2021/09/16 02:45:50;;;;;;;25.70;23.37;;;12.70;99.90;;;;;;5042389;28;20460;-70
2021/09/16 02:48:18;;;;;;;28.40;23.13;;;12.70;99.90;;;;;;5055758;28;20869;-69
2021/09/16 02:50:46;;;;;;;24.37;21.90;;;12.80;99.90;;;;;;5053813;28;20525;-69
2021/09/16 02:53:13;;;;;;;24.97;22.43;;;12.70;99.90;;;;;;5047621;28;20478;-71
2021/09/16 02:55:41;;;;;;;23.77;21.80;;;12.60;99.90;;;;;;5039839;28;20487;-69
2021/09/16 02:58:08;;;;;;;26.67;24.27;;;12.70;99.90;;;;;;5041942;28;20487;-69
2021/09/16 03:00:36;;;;;;;27.67;24.07;;;12.70;99.90;;;;;;5049095;28;20459;-72
2021/09/16 03:03:03;;;;;;;25.90;23.80;;;12.70;99.90;;;;;;5039211;28;20457;-72
2021/09/16 03:05:30;;;;;;;25.83;23.73;;;12.60;99.90;;;;;;5046560;28;20463;-72
2021/09/16 03:08:01;;;;;;;27.90;24.97;;;12.60;99.90;;;;;;5047462;28;20554;-68
2021/09/16 03:10:29;;;;;;;26.57;23.93;;;12.60;99.90;;;;;;5051997;28;20554;-70
2021/09/16 03:12:56;;;;;;;28.20;23.77;;;12.50;99.90;;;;;;5045377;28;20469;-69
2021/09/16 03:15:23;;;;;;;27.43;24.90;;;12.50;99.90;;;;;;5045233;28;21001;-69
2021/09/16 03:17:50;;;;;;;27.17;24.87;;;12.50;99.90;;;;;;5044818;28;20456;-72
2021/09/16 03:20:19;;;;;;;26.40;24.10;;;12.50;99.90;;;;;;5051641;28;20647;-69
2021/09/16 03:22:46;;;;;;;35.97;25.23;;;12.40;99.90;;;;;;5051709;28;20458;-72
2021/09/16 03:25:15;;;;;;;32.10;24.53;;;12.30;99.90;;;;;;5048627;28;20462;-69
2021/09/16 03:27:42;;;;;;;27.60;25.10;;;12.20;99.90;;;;;;5041679;28;20465;-70
2021/09/16 03:30:13;;;;;;;27.93;25.10;;;12.20;99.90;;;;;;5044679;28;20460;-70
2021/09/16 03:32:41;;;;;;;26.30;23.30;;;12.20;99.90;;;;;;5050227;28;20799;-70
2021/09/16 03:35:08;;;;;;;26.70;24.17;;;12.20;99.90;;;;;;5055919;28;20496;-69
2021/09/16 03:37:36;;;;;;;27.23;24.63;;;12.20;99.90;;;;;;5048627;28;20460;-70
2021/09/16 03:40:04;;;;;;;26.23;23.53;;;12.20;99.90;;;;;;5041801;28;20466;-69
2021/09/16 03:43:10;;;;;;;24.40;22.27;;;12.20;99.90;;;;;;5038447;28;20462;-70
2021/09/16 03:46:07;;;;;;;25.80;23.60;;;12.10;99.90;;;;;;4902996;29;20470;-69
2021/09/16 03:49:03;;;;;;;24.53;22.40;;;12.20;99.90;;;;;;4960827;28;20459;-69
2021/09/16 03:52:00;;;;;;;25.83;23.37;;;12.10;99.90;;;;;;4852271;29;20503;-70
2021/09/16 03:54:57;;;;;;;29.77;22.80;;;12.00;99.90;;;;;;4869145;29;20496;-73
2021/09/16 03:58:00;;;;;;;24.77;22.23;;;12.00;99.90;;;;;;4872560;29;20804;-72
2021/09/16 04:00:57;;;;;;;25.80;23.70;;;11.90;99.90;;;;;;4853750;29;20491;-70
2021/09/16 04:03:54;;;;;;;23.67;21.60;;;11.90;99.90;;;;;;4882544;28;20652;-69
2021/09/16 04:12:46;;;;;;;25.00;22.50;;;11.80;99.90;;;;;;4872692;29;20516;-70
2021/09/16 04:15:15;;;;;;;24.97;22.70;;;11.80;99.90;;;;;;4952445;28;20494;-70
2021/09/16 04:17:43;;;;;;;27.00;22.80;;;11.80;99.90;;;;;;5048464;28;20521;-70
2021/09/16 04:20:13;;;;;;;25.37;22.27;;;11.80;99.90;;;;;;5046830;28;20458;-70
2021/09/16 04:22:40;;;;;;;26.53;22.57;;;11.70;99.90;;;;;;5044833;28;20538;-71
2021/09/16 04:25:08;;;;;;;23.47;21.23;;;11.70;99.90;;;;;;5041260;28;20512;-69
2021/09/16 04:27:35;;;;;;;24.63;22.13;;;11.70;99.90;;;;;;5043943;28;20465;-72
2021/09/16 04:30:04;;;;;;;24.20;21.70;;;11.70;99.90;;;;;;5043247;28;20459;-69
2021/09/16 04:32:31;;;;;;;24.67;22.50;;;11.80;99.90;;;;;;5052621;28;20473;-72
2021/09/16 04:34:58;;;;;;;25.03;22.50;;;11.70;99.90;;;;;;5044339;28;20509;-69
2021/09/16 04:37:26;;;;;;;25.33;22.83;;;11.80;99.90;;;;;;5047002;28;20515;-69
2021/09/16 04:39:54;;;;;;;27.13;24.43;;;11.80;99.90;;;;;;5043525;28;20966;-69
2021/09/16 04:42:22;;;;;;;26.90;23.67;;;11.90;99.90;;;;;;5042248;28;20470;-70
2021/09/16 04:44:51;;;;;;;38.10;31.90;;;11.90;99.90;;;;;;5045420;28;20460;-70
2021/09/16 04:47:21;;;;;;;33.77;30.27;;;11.90;99.90;;;;;;5051850;28;20462;-69
2021/09/16 04:49:49;;;;;;;34.33;30.90;;;11.90;99.90;;;;;;5043681;28;20468;-71
2021/09/16 04:52:16;;;;;;;36.10;32.50;;;11.80;99.90;;;;;;5048258;28;20775;-70
2021/09/16 04:54:44;;;;;;;33.90;30.53;;;11.70;99.90;;;;;;5046502;28;20486;-69
2021/09/16 04:57:11;;;;;;;36.73;31.80;;;11.70;99.90;;;;;;5034371;28;20945;-69
2021/09/16 04:59:38;;;;;;;36.63;32.17;;;11.60;99.90;;;;;;5040597;28;20914;-69
2021/09/16 05:02:06;;;;;;;56.13;34.73;;;11.70;99.90;;;;;;5046009;28;20467;-70
2021/09/16 05:04:35;;;;;;;38.60;33.87;;;11.70;99.90;;;;;;5046559;28;20493;-69
2021/09/16 05:07:02;;;;;;;39.37;31.83;;;11.70;99.90;;;;;;5047966;28;20557;-70
2021/09/16 05:09:31;;;;;;;45.20;34.17;;;11.60;99.90;;;;;;5044954;28;20471;-69
2021/09/16 05:11:58;;;;;;;36.67;32.93;;;11.70;99.90;;;;;;5042639;28;20570;-71
2021/09/16 05:14:25;;;;;;;38.20;34.30;;;11.60;99.90;;;;;;5042814;28;20462;-69
2021/09/16 05:16:52;;;;;;;35.80;32.30;;;11.60;99.90;;;;;;5043614;28;20463;-69
2021/09/16 05:19:19;;;;;;;38.03;31.53;;;11.60;99.90;;;;;;5046274;28;20751;-69
2021/09/16 05:21:48;;;;;;;35.87;32.13;;;11.60;99.90;;;;;;5048211;28;20458;-70
2021/09/16 05:24:18;;;;;;;32.10;28.93;;;11.70;99.90;;;;;;5038216;28;20463;-71
2021/09/16 05:26:45;;;;;;;29.73;26.90;;;11.70;99.90;;;;;;5041104;28;20555;-69
2021/09/16 05:29:13;;;;;;;29.20;26.37;;;11.60;99.90;;;;;;5049003;28;20732;-69
2021/09/16 05:31:41;;;;;;;30.00;26.77;;;11.70;99.90;;;;;;5043335;28;20456;-70
2021/09/16 05:34:09;;;;;;;29.50;26.50;;;11.70;99.90;;;;;;5045972;28;20495;-69
2021/09/16 05:36:36;;;;;;;29.37;26.20;;;11.70;99.90;;;;;;5038737;28;20579;-70
2021/09/16 05:39:08;;;;;;;28.93;26.10;;;11.90;99.90;;;;;;5043177;28;20959;-71
2021/09/16 05:41:35;;;;;;;29.30;26.53;;;12.00;99.90;;;;;;5039776;28;20927;-71
2021/09/16 05:44:04;;;;;;;28.17;25.80;;;12.10;99.90;;;;;;5046630;28;20464;-71
2021/09/16 05:46:33;;;;;;;29.83;27.00;;;12.20;99.90;;;;;;5050584;28;20460;-72
2021/09/16 05:49:01;;;;;;;31.33;26.57;;;12.20;99.90;;;;;;5044055;28;20877;-71
2021/09/16 05:51:30;;;;;;;38.20;26.37;;;12.40;99.90;;;;;;5049747;28;20452;-72
2021/09/16 05:53:57;;;;;;;27.47;24.57;;;12.40;99.90;;;;;;5044826;28;20455;-72
2021/09/16 05:56:26;;;;;;;28.83;26.23;;;12.50;99.90;;;;;;5047542;28;20479;-69
2021/09/16 05:58:53;;;;;;;27.03;24.30;;;12.50;99.90;;;;;;5045023;28;20474;-72
2021/09/16 06:01:20;;;;;;;26.10;24.03;;;12.50;99.90;;;;;;5042720;28;20464;-70
2021/09/16 06:03:48;;;;;;;30.47;24.67;;;12.60;99.90;;;;;;5043645;28;20487;-71
2021/09/16 06:06:15;;;;;;;26.63;24.20;;;12.60;99.90;;;;;;5046650;28;20468;-70
2021/09/16 06:08:42;;;;;;;25.57;23.33;;;12.60;99.90;;;;;;5047495;28;20474;-70
2021/09/16 06:11:10;;;;;;;27.80;24.53;;;12.70;99.90;;;;;;5048169;28;20471;-69
2021/09/16 06:13:38;;;;;;;26.50;24.10;;;12.80;99.90;;;;;;5043399;28;20548;-72
2021/09/16 06:16:06;;;;;;;27.03;24.43;;;12.90;99.90;;;;;;5050249;28;21065;-69
2021/09/16 06:18:33;;;;;;;27.30;24.20;;;12.90;99.90;;;;;;5046033;28;20467;-69
2021/09/16 06:21:01;;;;;;;27.10;24.53;;;12.90;99.90;;;;;;5037718;28;20467;-72
2021/09/16 06:23:28;;;;;;;34.87;24.63;;;12.80;99.90;;;;;;5039339;28;20514;-70
2021/09/16 06:25:55;;;;;;;26.80;23.93;;;12.90;99.90;;;;;;5050999;28;20460;-68
2021/09/16 06:28:22;;;;;;;27.87;24.90;;;12.90;99.90;;;;;;5045259;28;20459;-69
2021/09/16 06:30:50;;;;;;;26.87;24.00;;;12.90;99.90;;;;;;5043377;28;20827;-70
2021/09/16 06:33:17;;;;;;;27.70;25.00;;;13.00;99.90;;;;;;5037679;28;20473;-70
2021/09/16 06:35:44;;;;;;;28.23;25.37;;;13.00;99.90;;;;;;5040903;28;20492;-72
2021/09/16 06:38:12;;;;;;;27.83;23.70;;;13.10;99.90;;;;;;5038428;28;20571;-69
2021/09/16 06:40:39;;;;;;;27.80;23.60;;;13.20;99.90;;;;;;5038665;28;20471;-69
2021/09/16 06:43:05;;;;;;;27.83;24.97;;;13.20;99.90;;;;;;5052694;28;20465;-72
2021/09/16 06:45:34;;;;;;;32.27;24.77;;;13.30;99.90;;;;;;5049072;28;20459;-70
2021/09/16 06:48:02;;;;;;;26.47;23.83;;;13.40;99.90;;;;;;5037262;28;20464;-69
2021/09/16 06:50:30;;;;;;;31.33;24.50;;;13.60;99.90;;;;;;5039071;28;20457;-70
2021/09/16 06:52:58;;;;;;;34.60;24.70;;;13.70;99.90;;;;;;5036355;28;20467;-69
2021/09/16 06:55:24;;;;;;;26.37;23.97;;;13.80;99.90;;;;;;5033025;28;20947;-71
2021/09/16 06:57:51;;;;;;;28.57;23.70;;;13.80;99.90;;;;;;5032249;28;20480;-70
2021/09/16 07:00:19;;;;;;;30.13;24.13;;;13.90;99.90;;;;;;5042867;28;20468;-72
2021/09/16 07:02:50;;;;;;;27.60;23.50;;;14.00;99.90;;;;;;5037323;28;20459;-71
2021/09/16 07:05:19;;;;;;;26.47;23.70;;;14.00;99.90;;;;;;5035421;28;20464;-71
2021/09/16 07:07:46;;;;;;;27.03;23.90;;;14.00;99.90;;;;;;5041535;28;20486;-71
2021/09/16 07:10:13;;;;;;;28.33;24.00;;;14.20;99.90;;;;;;5029971;28;20460;-69
2021/09/16 07:12:40;;;;;;;29.70;23.73;;;14.30;99.90;;;;;;5031480;28;20460;-70
2021/09/16 07:15:09;;;;;;;27.23;24.60;;;14.30;99.90;;;;;;5041031;28;20460;-72
2021/09/16 07:17:36;;;;;;;27.60;24.43;;;14.40;99.90;;;;;;5042150;28;20463;-69
2021/09/16 07:20:04;;;;;;;27.17;24.60;;;14.50;99.90;;;;;;5036055;28;20749;-70
2021/09/16 07:22:32;;;;;;;31.83;24.23;;;14.50;99.90;;;;;;5040923;28;20506;-70
2021/09/16 07:25:00;;;;;;;25.17;22.93;;;14.50;99.90;;;;;;5038339;28;20467;-69
2021/09/16 07:27:27;;;;;;;26.50;24.00;;;14.60;99.90;;;;;;5033730;28;20483;-69
2021/09/16 07:29:54;;;;;;;35.53;23.80;;;14.70;99.90;;;;;;5039526;28;20506;-70
2021/09/16 07:32:20;;;;;;;27.63;24.90;;;14.70;99.90;;;;;;5038548;28;20474;-71
2021/09/16 07:34:48;;;;;;;27.10;24.23;;;14.70;99.90;;;;;;5001996;28;1065607;-69
2021/09/16 07:37:15;;;;;;;28.57;24.77;;;14.80;99.90;;;;;;5040785;28;20232;-69
2021/09/16 07:39:44;;;;;;;28.33;25.17;;;14.90;99.90;;;;;;5042720;28;20452;-70
2021/09/16 07:42:11;;;;;;;27.57;24.43;;;14.90;99.90;;;;;;5043646;28;20935;-71
2021/09/16 07:44:38;;;;;;;30.00;25.97;;;15.00;99.90;;;;;;5045704;28;20874;-69
2021/09/16 07:47:05;;;;;;;28.80;25.70;;;15.10;99.90;;;;;;5038269;28;20465;-69
2021/09/16 07:49:32;;;;;;;27.00;24.20;;;15.10;99.90;;;;;;5038629;28;20460;-69
2021/09/16 07:51:59;;;;;;;28.50;23.20;;;15.20;99.90;;;;;;5040466;28;20455;-70
2021/09/16 07:54:26;;;;;;;24.67;22.57;;;15.20;99.90;;;;;;5043288;28;20580;-68
2021/09/16 07:56:54;;;;;;;32.77;22.80;;;15.20;99.90;;;;;;5043794;28;20480;-69
2021/09/16 07:59:21;;;;;;;26.83;23.10;;;15.30;99.90;;;;;;5037370;28;20452;-72
2021/09/16 08:01:48;;;;;;;25.60;23.13;;;15.30;99.90;;;;;;5039057;28;20460;-69
2021/09/16 08:04:15;;;;;;;24.87;22.00;;;15.30;99.90;;;;;;5039184;28;20547;-70
2021/09/16 08:06:42;;;;;;;25.60;21.93;;;15.40;99.90;;;;;;5038978;28;20467;-69
2021/09/16 08:09:09;;;;;;;23.87;20.90;;;15.50;99.90;;;;;;5041167;28;20485;-70
2021/09/16 08:11:39;;;;;;;26.10;23.50;;;15.60;99.90;;;;;;5045847;28;20470;-71
2021/09/16 08:14:07;;;;;;;26.40;21.80;;;15.70;99.90;;;;;;5039481;28;20455;-69
2021/09/16 08:16:35;;;;;;;25.53;21.57;;;15.80;99.90;;;;;;5041503;28;21096;-70
2021/09/16 08:19:02;;;;;;;22.93;20.93;;;15.90;99.90;;;;;;5039831;28;20583;-70
2021/09/16 08:21:29;;;;;;;24.50;21.93;;;16.00;99.90;;;;;;5043951;28;20883;-70
2021/09/16 08:23:56;;;;;;;23.63;20.73;;;16.10;99.90;;;;;;5046120;28;20462;-72
2021/09/16 08:26:24;;;;;;;22.60;20.40;;;16.30;99.90;;;;;;5044462;28;20948;-70
2021/09/16 08:28:51;;;;;;;22.60;20.70;;;16.50;99.90;;;;;;5044892;28;20452;-70
2021/09/16 08:31:20;;;;;;;26.20;21.00;;;16.60;99.90;;;;;;5039896;28;20547;-71
2021/09/16 08:33:48;;;;;;;22.93;20.63;;;16.80;99.90;;;;;;5040132;28;21183;-72
2021/09/16 08:36:16;;;;;;;21.00;19.20;;;16.90;99.90;;;;;;5035577;28;20494;-71
2021/09/16 08:38:44;;;;;;;23.13;21.00;;;16.90;99.90;;;;;;5036230;28;20467;-72
2021/09/16 08:41:11;;;;;;;21.67;19.97;;;17.00;99.90;;;;;;5037940;28;21031;-69
2021/09/16 08:43:39;;;;;;;20.80;19.30;;;17.00;99.90;;;;;;5038905;28;20459;-71
2021/09/16 08:46:07;;;;;;;21.67;19.67;;;17.10;99.90;;;;;;5043799;28;20460;-71
2021/09/16 08:48:35;;;;;;;19.37;17.93;;;17.10;99.90;;;;;;5048480;28;20516;-69
2021/09/16 08:51:03;;;;;;;18.63;17.20;;;17.20;99.90;;;;;;5045223;28;20470;-71
2021/09/16 08:53:32;;;;;;;19.30;17.80;;;17.40;99.90;;;;;;5039663;28;20957;-69
2021/09/16 08:56:03;;;;;;;18.63;17.13;;;17.40;99.90;;;;;;5031340;28;20849;-69
2021/09/16 08:58:32;;;;;;;19.00;17.67;;;17.40;99.90;;;;;;5044169;28;20985;-71
2021/09/16 09:01:00;;;;;;;18.50;17.20;;;17.60;99.90;;;;;;5036418;28;20465;-69
2021/09/16 09:03:27;;;;;;;18.60;17.50;;;17.60;99.90;;;;;;5045707;28;21024;-69
2021/09/16 09:05:56;;;;;;;17.57;16.53;;;17.60;99.90;;;;;;5045820;28;20479;-72
2021/09/16 09:08:24;;;;;;;20.63;18.80;;;17.70;99.90;;;;;;5037598;28;20566;-71
2021/09/16 09:10:53;;;;;;;18.47;17.30;;;17.80;99.90;;;;;;5034384;28;20464;-73
2021/09/16 09:13:21;;;;;;;19.60;18.23;;;17.80;99.90;;;;;;5038089;28;20475;-70
2021/09/16 09:15:58;;;;;;;19.23;17.97;;;17.90;99.90;;;;;;5049865;28;20950;-69
2021/09/16 09:18:25;;;;;;;19.50;18.10;;;18.10;99.90;;;;;;5048521;28;20774;-69
2021/09/16 09:21:00;;;;;;;20.40;18.80;;;18.40;99.90;;;;;;5035491;28;20459;-70
2021/09/16 09:23:30;;;;;;;20.33;18.83;;;18.60;99.90;;;;;;5037822;28;20468;-73
2021/09/16 09:25:58;;;;;;;20.23;18.73;;;18.80;99.90;;;;;;5032605;28;20466;-70
2021/09/16 09:28:34;;;;;;;18.43;17.13;;;19.60;99.90;;;;;;5035908;28;20464;-72
2021/09/16 09:31:14;;;;;;;18.53;17.10;;;20.30;99.90;;;;;;5045465;28;20580;-70
2021/09/16 09:33:42;;;;;;;16.97;15.97;;;20.80;99.90;;;;;;5041863;28;20608;-70
2021/09/16 09:36:14;;;;;;;18.33;17.13;;;21.20;99.90;;;;;;5034694;28;20920;-71
2021/09/16 09:38:54;;;;;;;18.17;16.77;;;20.60;99.90;;;;;;5032485;28;20460;-70
2021/09/16 09:41:28;;;;;;;19.93;18.70;;;20.10;99.90;;;;;;5032937;28;20461;-70
2021/09/16 09:44:08;;;;;;;17.33;16.43;;;19.60;99.90;;;;;;5044495;28;20471;-71
2021/09/16 09:46:49;;;;;;;18.93;17.90;;;19.60;99.90;;;;;;5038058;28;20541;-71
2021/09/16 09:49:19;;;;;;;18.83;17.63;;;20.10;99.90;;;;;;5033303;28;20471;-73
2021/09/16 09:51:51;;;;;;;18.33;17.23;;;19.90;99.90;;;;;;5042907;28;20466;-71
2021/09/16 09:54:24;;;;;;;18.97;17.43;;;20.10;99.90;;;;;;5042352;28;20470;-68
2021/09/16 09:57:04;;;;;;;18.17;15.80;;;20.20;99.90;;;;;;5033579;28;20498;-68
2021/09/16 09:59:59;;;;;;;17.33;16.17;;;20.70;99.90;;;;;;5048020;28;20472;-69
2021/09/16 10:02:28;;;;;;;18.20;16.97;;;21.80;99.90;;;;;;5042371;28;20817;-67
2021/09/16 10:04:56;;;;;;;17.73;16.53;;;22.40;99.90;;;;;;5033055;28;20452;-68
2021/09/16 10:07:36;;;;;;;17.90;16.80;;;22.90;99.90;;;;;;5037861;28;20967;-69
2021/09/16 10:10:08;;;;;;;17.20;16.30;;;22.80;99.90;;;;;;5040650;28;20836;-68
2021/09/16 10:12:36;;;;;;;17.10;16.10;;;22.60;99.90;;;;;;5041434;28;20466;-74
2021/09/16 10:15:04;;;;;;;18.63;16.97;;;23.40;99.90;;;;;;5042921;28;20459;-69
2021/09/16 10:17:31;;;;;;;17.47;16.43;;;24.00;99.90;;;;;;5038562;28;20821;-69
2021/09/16 10:19:59;;;;;;;18.40;17.20;;;23.00;99.90;;;;;;5044840;28;20837;-69
2021/09/16 10:22:26;;;;;;;17.77;16.50;;;21.90;99.90;;;;;;5045920;28;20547;-69
2021/09/16 10:24:56;;;;;;;17.60;16.50;;;21.50;99.90;;;;;;5041044;28;20963;-71
2021/09/16 10:27:34;;;;;;;18.70;17.30;;;21.40;99.90;;;;;;5033767;28;20529;-69
2021/09/16 10:30:42;;;;;;;18.03;17.03;;;21.70;99.90;;;;;;5037056;28;20820;-72
2021/09/16 10:33:12;;;;;;;18.03;17.00;;;22.00;99.90;;;;;;5045920;28;20464;-72
2021/09/16 10:35:41;;;;;;;18.07;16.97;;;22.80;99.90;;;;;;5036770;28;20447;-71
2021/09/16 10:38:23;;;;;;;16.50;15.60;;;23.70;99.90;;;;;;5044488;28;20491;-69
2021/09/16 10:41:15;;;;;;;17.07;16.20;;;22.70;99.90;;;;;;5034890;28;20526;-69
2021/09/16 10:43:44;;;;;;;17.20;16.20;;;21.70;99.90;;;;;;5036459;28;20994;-68
2021/09/16 10:46:36;;;;;;;17.13;16.13;;;20.80;99.90;;;;;;5035835;28;20465;-69
2021/09/16 10:49:30;;;;;;;17.70;16.70;;;20.70;99.90;;;;;;5036392;28;20471;-69
2021/09/16 10:51:59;;;;;;;20.37;19.07;;;21.10;99.90;;;;;;5040038;28;20472;-70
2021/09/16 10:54:41;;;;;;;20.10;18.90;;;21.00;99.90;;;;;;5038927;28;20464;-68
2021/09/16 10:57:11;;;;;;;19.23;18.13;;;20.90;99.90;;;;;;5046482;28;20508;-68
2021/09/16 11:00:09;;;;;;;17.33;16.40;;;20.90;99.90;;;;;;5035731;28;20459;-71
2021/09/16 11:03:04;;;;;;;17.10;15.80;;;21.30;99.90;;;;;;5052310;28;20489;-71
2021/09/16 11:05:43;;;;;;;17.30;16.50;;;21.20;99.90;;;;;;5036646;28;20594;-67
2021/09/16 11:08:11;;;;;;;17.70;16.70;;;21.10;99.90;;;;;;5053032;28;20562;-68
2021/09/16 11:10:51;;;;;;;17.50;16.40;;;21.30;99.90;;;;;;5049227;28;20464;-69
2021/09/16 11:13:38;;;;;;;18.83;17.03;;;21.20;99.90;;;;;;5043388;28;20801;-68
2021/09/16 11:16:07;;;;;;;17.20;16.20;;;21.10;99.90;;;;;;5037977;28;20474;-68
2021/09/16 11:18:34;;;;;;;15.50;14.80;;;21.00;99.90;;;;;;5036658;28;20487;-69
2021/09/16 11:21:03;;;;;;;16.50;15.60;;;21.30;99.90;;;;;;5042191;28;20514;-69
2021/09/16 11:23:39;;;;;;;16.00;15.10;;;21.70;99.90;;;;;;5025882;28;20471;-72
2021/09/16 11:26:06;;;;;;;16.93;15.33;;;22.40;99.90;;;;;;5032649;28;20466;-70
2021/09/16 11:28:35;;;;;;;16.47;15.10;;;23.30;99.90;;;;;;5038479;28;20456;-69
2021/09/16 11:31:02;;;;;;;15.70;14.67;;;23.80;99.90;;;;;;5038849;28;20465;-69
2021/09/16 11:33:29;;;;;;;16.27;15.47;;;23.80;99.90;;;;;;5038065;28;20470;-70
2021/09/16 11:36:06;;;;;;;16.23;14.90;;;23.30;99.90;;;;;;5031142;28;20461;-68
2021/09/16 11:38:33;;;;;;;16.70;15.40;;;23.00;99.90;;;;;;5047496;28;20495;-69
2021/09/16 11:41:04;;;;;;;16.93;16.03;;;22.60;99.90;;;;;;5041651;28;20458;-72
2021/09/16 11:43:32;;;;;;;16.43;15.43;;;22.30;99.90;;;;;;5041612;28;20455;-70
2021/09/16 11:46:02;;;;;;;17.27;15.90;;;22.50;99.90;;;;;;5042314;28;20466;-69
2021/09/16 11:48:30;;;;;;;16.10;15.10;;;22.50;99.90;;;;;;5036501;28;20460;-70
2021/09/16 11:51:02;;;;;;;16.20;15.20;;;22.90;99.90;;;;;;5044431;28;20460;-69
2021/09/16 11:53:31;;;;;;;16.37;15.43;;;23.10;99.90;;;;;;5041168;28;20460;-70
2021/09/16 11:56:00;;;;;;;15.00;14.00;;;23.40;99.90;;;;;;5036203;28;20826;-69
2021/09/16 11:58:29;;;;;;;14.70;14.00;;;23.30;99.90;;;;;;5041008;28;20946;-69
2021/09/16 12:00:59;;;;;;;15.03;14.17;;;22.90;99.90;;;;;;5037675;28;20500;-71
2021/09/16 12:03:29;;;;;;;15.10;14.20;;;23.40;99.90;;;;;;5050016;28;20538;-70
2021/09/16 12:05:58;;;;;;;14.90;14.20;;;23.60;99.90;;;;;;5058074;28;20458;-70
2021/09/16 12:08:27;;;;;;;15.13;14.20;;;23.40;99.90;;;;;;5045201;28;20485;-71
2021/09/16 12:10:58;;;;;;;15.57;14.53;;;23.90;99.90;;;;;;5039351;28;20455;-70
2021/09/16 12:13:27;;;;;;;15.23;14.00;;;24.10;99.90;;;;;;5039558;28;20486;-73
2021/09/16 12:16:07;;;;;;;14.77;14.10;;;24.40;99.90;;;;;;5039443;28;20457;-72
2021/09/16 12:18:37;;;;;;;14.50;13.70;;;24.40;99.90;;;;;;5036078;28;20492;-70
2021/09/16 12:21:05;;;;;;;15.50;14.50;;;23.90;99.90;;;;;;5039504;28;20819;-70
2021/09/16 12:23:32;;;;;;;15.27;14.23;;;23.30;99.90;;;;;;5038939;28;20456;-71
2021/09/16 12:26:03;;;;;;;15.00;14.30;;;23.20;99.90;;;;;;5037594;28;20449;-72
2021/09/16 12:28:30;;;;;;;15.63;14.43;;;23.60;99.90;;;;;;5044079;28;20455;-69
2021/09/16 12:31:06;;;;;;;14.43;13.73;;;23.60;99.90;;;;;;5042703;28;20867;-70
2021/09/16 12:33:40;;;;;;;15.20;14.27;;;23.50;99.90;;;;;;5046792;28;20487;-69
2021/09/16 12:36:20;;;;;;;15.37;14.47;;;23.60;99.90;;;;;;5043343;28;20462;-74
2021/09/16 12:38:50;;;;;;;13.87;13.17;;;24.20;99.90;;;;;;5042878;28;20491;-70
2021/09/16 12:41:36;;;;;;;14.07;13.37;;;24.40;99.90;;;;;;5041814;28;20462;-70
2021/09/16 12:44:06;;;;;;;15.17;14.30;;;24.30;99.90;;;;;;5035501;28;20477;-70
2021/09/16 12:46:41;;;;;;;14.80;14.10;;;24.70;99.90;;;;;;5038968;28;20457;-69